KMTO/MTO METAR and TAF weather

Enter ICAO airport designator
Station Type Date Time Source
KMTO METAR 2022/01/19 19:53 UTC NOAA

KMTO 191953Z AUTO 33018KT 10SM OVC090 M03/M09 A3013 RMK AO2 SLP210 T10331094


Station Type Date Time Source
KMTO Decoded METAR 2022/01/19 19:53 UTC NOAA

MATTOON/CHARLESTON COLES CO, IL, United States (KMTO) 39-28N 88-16W 214M
Jan 19, 2022 - 02:53 PM EST / 2022.01.19 1953 UTC
Wind: from the NNW (330 degrees) at 21 MPH (18 KT):0
Visibility: 10 mile(s):0
Sky conditions: overcast
Temperature: 26.1 F (-3.3 C)
Windchill: 12 F (-11 C):1
Dew Point: 15.1 F (-9.4 C)
Relative Humidity: 62%
Pressure (altimeter): 30.13 in. Hg (1020 hPa)
ob: KMTO 191953Z AUTO 33018KT 10SM OVC090 M03/M09 A3013 RMK AO2 SLP210 T10331094
cycle: 20

Station Type Date Time Source
KMTO TAF UTC NOAA

Error!

Example: see airport list